PHSF METAR and TAF | Updated Today

PHSF METAR

Bradshaw Army Airfield

Observation time: 54 min. ago

PHSF 200703Z AUTO 06003KT 8SM SCT008 BKN140 14/12 A3040 RMK AO2 SLP165 $

Need help? Read our tutorial on how to read METARs or read the parsed version below.

Bradshaw Army Airfield (PHSF) METAR

  • Weather conditions on Fri, 20 May 2022 07:03:00 +0000 (54 min. ago):
  • Present conditions: Dry
  • Clouds: Scattered at 244 meters; broken sky at 4267 meters
  • Visibility: 12875 meters
  • Wind: 60 degrees at 3 knots
  • Temperature: 14 celsius
  • Dew point: 12 celsius
  • Pressure: 30.4 inHg
  • Remarks: AO2 SLP165 $


Useful to know...